createdAt,value
2023-05-11T00:01:09.354Z,12.09
2023-05-11T00:03:37.110Z,12.12
2023-05-11T00:06:04.631Z,12.13
2023-05-11T00:08:31.852Z,12.16
2023-05-11T00:11:00.783Z,12.20
2023-05-11T00:13:30.208Z,12.21
2023-05-11T00:15:57.918Z,12.23
2023-05-11T00:18:25.318Z,12.21
2023-05-11T00:20:52.553Z,12.25
2023-05-11T00:23:19.702Z,12.25
2023-05-11T00:25:46.883Z,12.25
2023-05-11T00:28:14.039Z,12.26
2023-05-11T00:30:41.534Z,12.28
2023-05-11T00:33:08.712Z,12.30
2023-05-11T00:35:35.972Z,12.30
2023-05-11T00:38:03.622Z,12.31
2023-05-11T00:40:34.201Z,12.34
2023-05-11T00:43:01.357Z,12.32
2023-05-11T00:45:29.788Z,12.32
2023-05-11T00:47:57.543Z,12.23
2023-05-11T00:50:26.507Z,12.23
2023-05-11T00:52:55.892Z,12.22
2023-05-11T00:55:25.339Z,12.19
2023-05-11T00:57:54.916Z,12.20
2023-05-11T01:00:22.902Z,12.22
2023-05-11T01:02:51.921Z,12.24
2023-05-11T01:05:19.451Z,12.26
2023-05-11T01:08:12.846Z,12.27
2023-05-11T01:10:55.617Z,12.26
2023-05-11T01:13:40.399Z,12.27
2023-05-11T01:16:21.213Z,12.27
2023-05-11T01:19:06.169Z,12.23
2023-05-11T01:21:34.713Z,12.22
2023-05-11T01:24:53.119Z,12.13
2023-05-11T01:28:33.187Z,12.12
2023-05-11T01:31:15.461Z,12.09
2023-05-11T01:34:23.725Z,12.10
2023-05-11T01:37:01.349Z,12.12
2023-05-11T01:39:41.207Z,12.12
2023-05-11T01:42:11.117Z,12.10
2023-05-11T01:44:47.412Z,12.09
2023-05-11T01:47:16.209Z,12.12
2023-05-11T01:49:45.578Z,12.13
2023-05-11T01:52:16.328Z,12.15
2023-05-11T01:54:44.967Z,12.17
2023-05-11T01:57:13.669Z,12.20
2023-05-11T01:59:41.251Z,12.20
2023-05-11T02:02:10.113Z,12.13
2023-05-11T02:04:39.451Z,12.12
2023-05-11T02:07:11.076Z,12.11
2023-05-11T02:09:39.663Z,12.16
2023-05-11T02:12:11.901Z,12.19
2023-05-11T02:14:41.714Z,12.25
2023-05-11T02:17:10.810Z,12.22
2023-05-11T02:19:39.663Z,12.23
2023-05-11T02:22:08.614Z,12.23
2023-05-11T02:24:36.754Z,12.22
2023-05-11T02:27:04.576Z,12.20
2023-05-11T02:29:32.607Z,12.20
2023-05-11T02:32:09.533Z,12.17
2023-05-11T02:34:45.629Z,12.15
2023-05-11T02:37:24.516Z,12.17
2023-05-11T02:40:05.179Z,12.19
2023-05-11T02:42:39.128Z,12.21
2023-05-11T02:45:13.098Z,12.21
2023-05-11T02:47:48.329Z,12.22
2023-05-11T02:50:24.324Z,12.23
2023-05-11T02:52:59.479Z,12.23
2023-05-11T02:55:29.112Z,12.20
2023-05-11T02:57:56.433Z,12.13
2023-05-11T03:00:24.333Z,12.16
2023-05-11T03:02:51.699Z,12.20
2023-05-11T03:05:21.471Z,12.23
2023-05-11T03:07:54.929Z,12.22
2023-05-11T03:10:23.099Z,12.21
2023-05-11T03:12:50.672Z,12.18
2023-05-11T03:15:21.000Z,12.15
2023-05-11T03:17:52.171Z,12.14
2023-05-11T03:20:22.385Z,12.16
2023-05-11T03:22:51.200Z,12.16
2023-05-11T03:25:20.147Z,12.15
2023-05-11T03:27:50.744Z,12.18
2023-05-11T03:30:22.137Z,12.16
2023-05-11T03:32:51.399Z,12.19
2023-05-11T03:35:18.789Z,12.18
2023-05-11T03:37:48.915Z,12.20
2023-05-11T03:40:19.868Z,12.20
2023-05-11T03:42:56.558Z,12.18
2023-05-11T03:45:28.432Z,12.10
2023-05-11T03:47:57.407Z,12.10
2023-05-11T03:50:28.593Z,12.08
2023-05-11T03:52:56.287Z,12.08
2023-05-11T03:55:24.131Z,12.09
2023-05-11T03:57:51.805Z,12.03
2023-05-11T04:00:19.414Z,12.01
2023-05-11T04:02:47.515Z,12.03
2023-05-11T04:05:14.915Z,12.05
2023-05-11T04:07:45.477Z,12.07
2023-05-11T04:10:13.026Z,12.06
2023-05-11T04:12:43.376Z,12.08
2023-05-11T04:15:11.228Z,12.09
2023-05-11T04:17:38.413Z,12.10
2023-05-11T04:20:07.005Z,12.11
2023-05-11T04:22:34.257Z,12.14
2023-05-11T04:25:03.300Z,12.12
2023-05-11T04:27:35.991Z,12.11
2023-05-11T04:30:06.111Z,12.16
2023-05-11T04:32:36.983Z,12.21
2023-05-11T04:35:04.797Z,12.22
2023-05-11T04:37:35.259Z,12.22
2023-05-11T04:40:07.300Z,12.26
2023-05-11T04:42:39.689Z,12.27
2023-05-11T04:45:11.300Z,12.29
2023-05-11T04:47:38.658Z,12.26
2023-05-11T04:50:07.994Z,12.31
2023-05-11T04:52:36.439Z,12.37
2023-05-11T04:55:04.520Z,12.39
2023-05-11T04:57:33.246Z,12.42
2023-05-11T05:00:01.502Z,12.48
2023-05-11T05:02:29.742Z,12.52
2023-05-11T05:04:56.947Z,12.56
2023-05-11T05:07:35.119Z,12.55
2023-05-11T05:10:03.911Z,12.58
2023-05-11T05:12:31.774Z,12.63
2023-05-11T05:14:59.451Z,12.64
2023-05-11T05:17:34.218Z,12.61
2023-05-11T05:20:03.936Z,12.66
2023-05-11T05:22:31.804Z,12.69
2023-05-11T05:24:59.578Z,12.72
2023-05-11T05:27:27.167Z,12.72
2023-05-11T05:29:55.256Z,12.76
2023-05-11T05:32:25.003Z,12.82
2023-05-11T05:34:52.198Z,12.90
2023-05-11T05:37:20.325Z,12.97
2023-05-11T05:39:48.527Z,13.06
2023-05-11T05:42:16.353Z,13.07
2023-05-11T05:44:43.572Z,13.05
2023-05-11T05:47:11.332Z,12.90
2023-05-11T05:49:38.709Z,12.84
2023-05-11T05:52:09.255Z,12.97
2023-05-11T05:54:36.766Z,13.21
2023-05-11T05:57:04.128Z,13.17
2023-05-11T05:59:31.292Z,13.15
2023-05-11T06:01:59.460Z,13.30
2023-05-11T06:04:26.684Z,13.23
2023-05-11T06:06:55.922Z,13.33
2023-05-11T06:09:23.604Z,13.41
2023-05-11T06:11:50.901Z,13.44
2023-05-11T06:14:18.982Z,13.53
2023-05-11T06:16:46.599Z,13.62
2023-05-11T06:19:13.910Z,13.73
2023-05-11T06:21:42.898Z,13.82
2023-05-11T06:24:10.308Z,13.70
2023-05-11T06:26:39.363Z,13.57
2023-05-11T06:29:07.893Z,13.75
2023-05-11T06:31:38.389Z,13.58
2023-05-11T06:34:06.104Z,13.68
2023-05-11T06:36:34.313Z,13.84
2023-05-11T06:39:01.765Z,13.84
2023-05-11T06:41:32.358Z,13.83
2023-05-11T06:44:00.682Z,13.96
2023-05-11T06:46:36.059Z,14.05
2023-05-11T06:49:03.434Z,14.23
2023-05-11T06:51:30.772Z,14.32
2023-05-11T06:53:57.980Z,14.39
2023-05-11T06:56:25.231Z,14.45
2023-05-11T06:58:52.406Z,14.56
2023-05-11T07:01:19.554Z,14.67
2023-05-11T07:03:48.957Z,14.76
2023-05-11T07:06:16.176Z,14.79
2023-05-11T07:08:43.438Z,14.78
2023-05-11T07:11:12.918Z,14.80
2023-05-11T07:13:40.092Z,14.94
2023-05-11T07:16:07.686Z,14.74
2023-05-11T07:18:34.928Z,14.88
2023-05-11T07:21:02.164Z,15.01
2023-05-11T07:23:29.410Z,15.02
2023-05-11T07:25:58.118Z,15.14
2023-05-11T07:28:25.341Z,15.24
2023-05-11T07:30:52.576Z,15.20
2023-05-11T07:33:19.717Z,15.40
2023-05-11T07:35:46.920Z,15.51
2023-05-11T07:38:14.105Z,15.68
2023-05-11T07:40:41.281Z,15.74
2023-05-11T07:43:08.458Z,15.39
2023-05-11T07:45:35.680Z,15.12
2023-05-11T07:48:02.959Z,15.34
2023-05-11T07:50:30.264Z,15.57
2023-05-11T07:52:57.429Z,15.39
2023-05-11T07:55:30.072Z,15.58
2023-05-11T07:58:00.263Z,15.16
2023-05-11T08:00:27.610Z,15.32
2023-05-11T08:02:54.957Z,15.17
2023-05-11T08:05:22.412Z,15.22
2023-05-11T08:07:49.719Z,15.32
2023-05-11T08:10:17.097Z,15.46
2023-05-11T08:12:44.289Z,15.46
2023-05-11T08:15:11.856Z,15.21
2023-05-11T08:17:39.076Z,15.67
2023-05-11T08:20:07.756Z,15.12
2023-05-11T08:22:35.216Z,14.91
2023-05-11T08:25:03.749Z,15.35
2023-05-11T08:27:30.969Z,15.83
2023-05-11T08:29:58.522Z,15.56
2023-05-11T08:32:27.131Z,16.03
2023-05-11T08:34:54.464Z,16.54
2023-05-11T08:37:22.828Z,16.53
2023-05-11T08:39:49.863Z,15.90
2023-05-11T08:42:17.682Z,16.07
2023-05-11T08:44:45.493Z,16.38
2023-05-11T08:49:43.282Z,16.30
2023-05-11T08:52:12.938Z,16.63
2023-05-11T08:54:40.374Z,16.44
2023-05-11T08:57:07.750Z,16.43
2023-05-11T08:59:35.129Z,16.01
2023-05-11T09:02:04.467Z,16.34
2023-05-11T09:04:32.817Z,16.91
2023-05-11T09:07:00.152Z,16.78
2023-05-11T09:09:27.428Z,16.86
2023-05-11T09:11:55.228Z,16.84
2023-05-11T09:14:27.040Z,16.98
2023-05-11T09:16:54.727Z,16.78
2023-05-11T09:19:22.080Z,16.38
2023-05-11T09:21:49.377Z,16.88
2023-05-11T09:24:16.578Z,17.04
2023-05-11T09:26:43.764Z,17.27
2023-05-11T09:29:11.633Z,17.44
2023-05-11T09:31:43.520Z,17.58
2023-05-11T09:34:17.475Z,17.80
2023-05-11T09:36:49.731Z,18.06
2023-05-11T09:41:50.802Z,17.31
2023-05-11T09:44:19.501Z,17.17
2023-05-11T09:46:47.434Z,16.90
2023-05-11T09:49:14.797Z,17.84
2023-05-11T09:51:41.976Z,18.27
2023-05-11T09:54:22.324Z,17.53
2023-05-11T09:56:56.722Z,18.59
2023-05-11T09:59:41.733Z,19.22
2023-05-11T10:02:26.599Z,19.39
2023-05-11T10:05:00.754Z,19.03
2023-05-11T10:07:35.774Z,18.82
2023-05-11T10:10:11.598Z,19.46
2023-05-11T10:12:40.350Z,19.25
2023-05-11T10:15:10.697Z,18.70
2023-05-11T10:17:38.296Z,19.56
2023-05-11T10:20:06.928Z,19.69
2023-05-11T10:22:35.510Z,19.87
2023-05-11T10:25:06.068Z,19.80
2023-05-11T10:27:33.459Z,19.41
2023-05-11T10:30:02.304Z,18.40
2023-05-11T10:32:31.545Z,18.88
2023-05-11T10:35:00.229Z,19.11
2023-05-11T10:37:28.484Z,19.43
2023-05-11T10:39:57.257Z,18.75
2023-05-11T10:42:56.414Z,18.41
2023-05-11T10:45:45.263Z,19.58
2023-05-11T10:48:46.316Z,18.20
2023-05-11T10:52:00.061Z,18.56
2023-05-11T10:54:52.202Z,18.82
2023-05-11T10:57:51.642Z,18.37
2023-05-11T11:00:54.562Z,18.76
2023-05-11T11:03:21.888Z,18.88
2023-05-11T11:05:51.596Z,19.65
2023-05-11T11:08:18.854Z,19.45
2023-05-11T11:10:46.492Z,19.69
2023-05-11T11:13:20.257Z,20.01
2023-05-11T11:15:56.570Z,20.47
2023-05-11T11:18:34.969Z,21.08
2023-05-11T11:21:05.004Z,21.27
2023-05-11T11:23:51.130Z,20.75
2023-05-11T11:26:50.499Z,21.39
2023-05-11T11:29:17.886Z,21.24
2023-05-11T11:31:45.394Z,22.41
2023-05-11T11:34:39.097Z,20.31
2023-05-11T11:37:13.359Z,20.17
2023-05-11T11:39:43.554Z,20.19
2023-05-11T11:42:19.106Z,19.42
2023-05-11T11:44:46.986Z,20.11
2023-05-11T11:47:23.248Z,19.80
2023-05-11T11:49:55.463Z,19.56
2023-05-11T11:52:28.717Z,20.47
2023-05-11T11:54:59.771Z,21.70
2023-05-11T11:57:30.043Z,23.40
2023-05-11T11:59:57.239Z,23.72
2023-05-11T12:02:26.481Z,20.97
2023-05-11T12:04:58.417Z,19.98
2023-05-11T12:07:27.656Z,20.75
2023-05-11T12:09:55.893Z,20.22
2023-05-11T12:12:23.161Z,21.15
2023-05-11T12:14:50.427Z,21.64
2023-05-11T12:17:29.781Z,20.79
2023-05-11T12:20:16.908Z,19.75
2023-05-11T12:22:46.850Z,20.34
2023-05-11T12:25:19.008Z,19.73
2023-05-11T12:27:58.529Z,20.05
2023-05-11T12:30:32.421Z,20.48
2023-05-11T12:33:04.215Z,20.15
2023-05-11T12:35:34.166Z,20.50
2023-05-11T12:38:02.948Z,20.04
2023-05-11T12:40:31.740Z,19.64
2023-05-11T12:43:00.935Z,20.54
2023-05-11T12:45:29.335Z,21.55
2023-05-11T12:47:58.691Z,21.56
2023-05-11T12:50:26.078Z,20.87
2023-05-11T12:52:53.383Z,21.15
2023-05-11T12:55:29.571Z,21.28
2023-05-11T12:58:16.183Z,20.97
2023-05-11T13:00:56.831Z,20.55
2023-05-11T13:03:34.032Z,20.39
2023-05-11T13:06:13.378Z,20.60
2023-05-11T13:08:46.530Z,20.38
2023-05-11T13:11:23.122Z,20.41
2023-05-11T13:13:56.106Z,20.13
2023-05-11T13:16:33.696Z,19.85
2023-05-11T13:19:10.883Z,19.77
2023-05-11T13:21:38.820Z,19.48
2023-05-11T13:24:06.574Z,19.40
2023-05-11T13:26:34.313Z,19.40
2023-05-11T13:29:10.883Z,19.60
2023-05-11T13:31:47.703Z,19.64
2023-05-11T13:34:15.426Z,19.45
2023-05-11T13:36:43.160Z,18.95
2023-05-11T13:39:11.043Z,18.62
2023-05-11T13:41:38.364Z,18.33
2023-05-11T13:44:06.279Z,19.37
2023-05-11T13:46:33.514Z,20.32
2023-05-11T13:49:00.933Z,19.86
2023-05-11T13:51:28.053Z,18.87
2023-05-11T13:53:55.307Z,18.08
2023-05-11T13:56:22.490Z,17.39
2023-05-11T13:58:49.987Z,16.95
2023-05-11T14:01:17.201Z,17.02
2023-05-11T14:03:44.524Z,17.30
2023-05-11T14:06:11.760Z,17.36
2023-05-11T14:08:38.888Z,19.24
2023-05-11T14:11:06.246Z,20.47
2023-05-11T14:13:33.451Z,21.62
2023-05-11T14:16:01.490Z,21.39
2023-05-11T14:18:29.088Z,21.94
2023-05-11T14:20:56.915Z,22.50
2023-05-11T14:23:24.121Z,23.16
2023-05-11T14:25:51.306Z,22.25
2023-05-11T14:28:18.487Z,22.59
2023-05-11T14:30:45.734Z,21.33
2023-05-11T14:33:12.990Z,19.21
2023-05-11T14:35:40.372Z,17.68
2023-05-11T14:38:07.561Z,17.24
2023-05-11T14:40:34.742Z,17.14
2023-05-11T14:43:02.575Z,16.79
2023-05-11T14:45:29.851Z,17.44
2023-05-11T14:47:57.161Z,17.81
2023-05-11T14:50:24.399Z,17.55
2023-05-11T14:52:51.820Z,17.26
2023-05-11T14:55:19.174Z,17.17
2023-05-11T14:57:46.479Z,17.61
2023-05-11T15:00:14.714Z,18.00
2023-05-11T15:02:41.940Z,17.60
2023-05-11T15:05:10.846Z,17.87
2023-05-11T15:07:39.260Z,17.61
2023-05-11T15:10:07.868Z,17.02
2023-05-11T15:12:35.057Z,16.68
2023-05-11T15:15:03.478Z,16.69
2023-05-11T15:17:31.194Z,16.64
2023-05-11T15:19:58.371Z,16.76
2023-05-11T15:22:25.592Z,16.87
2023-05-11T15:24:52.815Z,17.05
2023-05-11T15:27:20.135Z,17.09
2023-05-11T15:29:47.657Z,17.00
2023-05-11T15:32:15.547Z,16.98
2023-05-11T15:34:58.066Z,17.00
2023-05-11T15:37:26.217Z,17.07
2023-05-11T15:39:53.463Z,17.08
2023-05-11T15:42:20.918Z,17.09
2023-05-11T15:44:48.323Z,17.06
2023-05-11T15:47:15.489Z,16.99
2023-05-11T15:49:42.677Z,16.92
2023-05-11T15:52:12.274Z,16.87
2023-05-11T15:54:39.546Z,16.64
2023-05-11T15:57:06.752Z,16.69
2023-05-11T15:59:34.835Z,16.53
2023-05-11T16:02:02.088Z,16.44
2023-05-11T16:04:29.262Z,16.36
2023-05-11T16:06:58.750Z,16.20
2023-05-11T16:09:26.168Z,16.27
2023-05-11T16:11:53.361Z,16.39
2023-05-11T16:14:21.314Z,16.37
2023-05-11T16:16:49.183Z,16.24
2023-05-11T16:19:16.477Z,16.16
2023-05-11T16:21:43.780Z,16.23
2023-05-11T16:24:10.965Z,16.21
2023-05-11T16:26:42.557Z,16.18
2023-05-11T16:29:09.814Z,16.20
2023-05-11T16:31:37.063Z,16.08
2023-05-11T16:34:04.234Z,15.96
2023-05-11T16:36:31.498Z,16.05
2023-05-11T16:38:58.816Z,16.20
2023-05-11T16:41:28.593Z,16.25
2023-05-11T16:43:56.248Z,16.21
2023-05-11T16:46:23.454Z,16.18
2023-05-11T16:48:50.744Z,16.14
2023-05-11T16:51:20.663Z,16.14
2023-05-11T16:53:47.865Z,16.13
2023-05-11T16:56:15.780Z,16.09
2023-05-11T16:58:43.540Z,16.05
2023-05-11T17:01:11.114Z,16.03
2023-05-11T17:03:39.808Z,16.03
2023-05-11T17:06:07.500Z,16.00
2023-05-11T17:08:34.794Z,16.00
2023-05-11T17:11:01.980Z,15.97
2023-05-11T17:13:29.154Z,15.93
2023-05-11T17:15:57.219Z,15.83
2023-05-11T17:18:24.891Z,15.74
2023-05-11T17:20:56.091Z,15.65
2023-05-11T17:23:24.695Z,15.61
2023-05-11T17:25:54.878Z,15.65
2023-05-11T17:28:22.178Z,15.67
2023-05-11T17:30:52.786Z,15.66
2023-05-11T17:33:20.394Z,15.59
2023-05-11T17:35:48.189Z,15.52
2023-05-11T17:38:15.803Z,15.41
2023-05-11T17:40:43.095Z,15.37
2023-05-11T17:43:10.227Z,15.29
2023-05-11T17:45:37.730Z,15.16
2023-05-11T17:48:05.100Z,15.15
2023-05-11T17:50:33.309Z,15.16
2023-05-11T17:53:02.917Z,15.26
2023-05-11T17:55:30.411Z,15.32
2023-05-11T17:57:58.336Z,15.27
2023-05-11T18:00:27.724Z,15.21
2023-05-11T18:02:55.595Z,15.20
2023-05-11T18:05:28.113Z,15.22
2023-05-11T18:08:07.775Z,15.20
2023-05-11T18:10:36.830Z,15.17
2023-05-11T18:13:11.290Z,15.14
2023-05-11T18:15:38.635Z,15.19
2023-05-11T18:18:07.229Z,15.19
2023-05-11T18:20:38.987Z,15.11
2023-05-11T18:23:06.303Z,15.00
2023-05-11T18:25:34.308Z,14.57
2023-05-11T18:28:04.253Z,14.60
2023-05-11T18:30:35.694Z,14.64
2023-05-11T18:33:03.211Z,14.66
2023-05-11T18:35:30.519Z,14.70
2023-05-11T18:37:59.462Z,14.73
2023-05-11T18:40:27.243Z,14.70
2023-05-11T18:42:54.593Z,14.75
2023-05-11T18:45:22.096Z,14.72
2023-05-11T18:47:50.067Z,14.76
2023-05-11T18:50:17.508Z,14.81
2023-05-11T18:52:44.941Z,14.81
2023-05-11T18:55:12.142Z,14.78
2023-05-11T18:57:40.493Z,14.74
2023-05-11T19:00:09.944Z,14.68
2023-05-11T19:02:38.334Z,14.60
2023-05-11T19:05:06.914Z,14.52
2023-05-11T19:07:34.212Z,14.51
2023-05-11T19:10:01.507Z,14.49
2023-05-11T19:12:29.038Z,14.46
2023-05-11T19:14:56.347Z,14.45
2023-05-11T19:17:24.229Z,14.36
2023-05-11T19:19:52.134Z,14.34
2023-05-11T19:22:21.285Z,14.30
2023-05-11T19:24:48.488Z,14.27
2023-05-11T19:27:15.917Z,14.20
2023-05-11T19:29:43.084Z,14.16
2023-05-11T19:32:10.357Z,14.12
2023-05-11T19:34:37.473Z,14.09
2023-05-11T19:37:04.851Z,14.02
2023-05-11T19:39:32.115Z,14.04
2023-05-11T19:42:00.870Z,14.01
2023-05-11T19:44:32.729Z,13.97
2023-05-11T19:47:00.074Z,13.98
2023-05-11T19:49:28.645Z,14.04
2023-05-11T19:51:56.097Z,14.04
2023-05-11T19:54:23.258Z,14.01
2023-05-11T19:56:50.434Z,13.99
2023-05-11T19:59:17.656Z,13.95
2023-05-11T20:01:45.280Z,13.87
2023-05-11T20:04:14.605Z,13.79
2023-05-11T20:06:41.938Z,13.70
2023-05-11T20:09:11.826Z,13.68
2023-05-11T20:11:39.227Z,13.66
2023-05-11T20:14:06.582Z,13.70
2023-05-11T20:16:33.992Z,13.72
2023-05-11T20:19:01.415Z,13.69
2023-05-11T20:21:28.929Z,13.67
2023-05-11T20:23:56.591Z,13.61
2023-05-11T20:26:27.019Z,13.59
2023-05-11T20:28:54.908Z,13.61
2023-05-11T20:31:22.259Z,13.62
2023-05-11T20:36:19.890Z,13.60
2023-05-11T20:38:47.244Z,13.59
2023-05-11T20:41:14.387Z,13.56
2023-05-11T20:43:41.685Z,13.56
2023-05-11T20:46:11.320Z,13.60
2023-05-11T20:48:42.822Z,13.59
2023-05-11T20:51:11.860Z,13.59
2023-05-11T20:53:39.109Z,13.58
2023-05-11T20:56:06.704Z,13.58
2023-05-11T20:58:33.968Z,13.56
2023-05-11T21:01:01.232Z,13.59
2023-05-11T21:03:28.664Z,13.57
2023-05-11T21:05:56.533Z,13.57
2023-05-11T21:08:23.750Z,13.50
2023-05-11T21:10:54.101Z,13.54
2023-05-11T21:13:21.228Z,13.46
2023-05-11T21:15:48.384Z,13.47
2023-05-11T21:18:15.676Z,13.51
2023-05-11T21:20:43.324Z,13.53
2023-05-11T21:23:10.464Z,13.44
2023-05-11T21:25:37.638Z,13.33
2023-05-11T21:28:05.674Z,13.32
2023-05-11T21:30:33.009Z,13.27
2023-05-11T21:33:00.341Z,13.28
2023-05-11T21:35:27.570Z,13.32
2023-05-11T21:37:54.712Z,13.29
2023-05-11T21:40:22.129Z,13.28
2023-05-11T21:42:49.469Z,13.31
2023-05-11T21:45:16.684Z,13.33
2023-05-11T21:47:43.907Z,13.32
2023-05-11T21:50:12.111Z,13.27
2023-05-11T21:52:41.394Z,13.27
2023-05-11T21:55:12.146Z,13.22
2023-05-11T21:57:39.299Z,13.19
2023-05-11T22:00:09.232Z,13.16
2023-05-11T22:02:37.737Z,13.18
2023-05-11T22:05:05.953Z,13.13
2023-05-11T22:07:33.146Z,13.13
2023-05-11T22:10:00.457Z,13.09
2023-05-11T22:12:27.605Z,13.02
2023-05-11T22:14:55.295Z,12.98
2023-05-11T22:17:22.910Z,12.98
2023-05-11T22:19:50.268Z,13.01
2023-05-11T22:22:17.454Z,13.00
2023-05-11T22:24:44.581Z,13.05
2023-05-11T22:27:15.467Z,13.07
2023-05-11T22:29:43.434Z,13.01
2023-05-11T22:32:11.887Z,12.93
2023-05-11T22:34:39.068Z,12.92
2023-05-11T22:37:08.323Z,12.95
2023-05-11T22:39:35.510Z,12.97
2023-05-11T22:42:03.415Z,12.90
2023-05-11T22:44:31.934Z,12.90
2023-05-11T22:46:59.803Z,12.88
2023-05-11T22:49:28.248Z,12.88
2023-05-11T22:51:58.575Z,12.89
2023-05-11T22:54:27.158Z,12.89
2023-05-11T22:56:54.471Z,12.94
2023-05-11T22:59:22.105Z,12.92
2023-05-11T23:01:49.474Z,12.91
2023-05-11T23:04:16.739Z,12.93
2023-05-11T23:06:43.887Z,12.92
2023-05-11T23:09:11.476Z,12.88
2023-05-11T23:11:38.638Z,12.84
2023-05-11T23:14:08.275Z,12.82
2023-05-11T23:16:35.669Z,12.81
2023-05-11T23:19:02.920Z,12.80
2023-05-11T23:21:30.177Z,12.78
2023-05-11T23:23:59.618Z,12.78
2023-05-11T23:26:31.214Z,12.80
2023-05-11T23:28:58.411Z,12.78
2023-05-11T23:31:27.709Z,12.78
2023-05-11T23:33:55.322Z,12.78
2023-05-11T23:36:22.836Z,12.76
2023-05-11T23:38:50.166Z,12.77
2023-05-11T23:41:19.731Z,12.60
2023-05-11T23:43:46.953Z,12.66
2023-05-11T23:46:17.001Z,12.65
2023-05-11T23:48:44.282Z,12.63
2023-05-11T23:51:19.032Z,12.59
2023-05-11T23:53:46.575Z,12.58
2023-05-11T23:56:13.831Z,12.60
2023-05-11T23:58:41.439Z,12.63
